sensor_id;sensor_type;location;lat;lon;timestamp;temperature;humidity
64143;DHT22;50437;51.970;5.904;2023-03-15T00:00:46;2.10;99.90
64143;DHT22;50437;51.970;5.904;2023-03-15T00:03:12;2.00;99.90
64143;DHT22;50437;51.970;5.904;2023-03-15T00:05:46;1.90;99.90
64143;DHT22;50437;51.970;5.904;2023-03-15T00:08:12;1.90;99.90
64143;DHT22;50437;51.970;5.904;2023-03-15T00:10:39;1.80;99.90
64143;DHT22;50437;51.970;5.904;2023-03-15T00:13:05;2.00;99.90
64143;DHT22;50437;51.970;5.904;2023-03-15T00:15:31;2.10;99.90
64143;DHT22;50437;51.970;5.904;2023-03-15T00:17:57;2.10;99.90
64143;DHT22;50437;51.970;5.904;2023-03-15T00:20:23;2.10;99.90
64143;DHT22;50437;51.970;5.904;2023-03-15T00:22:49;2.10;99.90
64143;DHT22;50437;51.970;5.904;2023-03-15T00:25:15;2.20;99.90
64143;DHT22;50437;51.970;5.904;2023-03-15T00:27:41;2.20;99.90
64143;DHT22;50437;51.970;5.904;2023-03-15T00:30:07;2.10;99.90
64143;DHT22;50437;51.970;5.904;2023-03-15T00:32:33;2.20;99.90
64143;DHT22;50437;51.970;5.904;2023-03-15T00:35:02;2.20;99.90
64143;DHT22;50437;51.970;5.904;2023-03-15T00:37:28;2.20;99.90
64143;DHT22;50437;51.970;5.904;2023-03-15T00:39:55;2.30;99.90
64143;DHT22;50437;51.970;5.904;2023-03-15T00:42:21;2.30;99.90
64143;DHT22;50437;51.970;5.904;2023-03-15T00:44:47;2.30;99.90
64143;DHT22;50437;51.970;5.904;2023-03-15T00:47:13;2.30;99.90
64143;DHT22;50437;51.970;5.904;2023-03-15T00:49:39;2.40;99.90
64143;DHT22;50437;51.970;5.904;2023-03-15T00:52:06;2.30;99.90
64143;DHT22;50437;51.970;5.904;2023-03-15T00:54:32;2.30;99.90
64143;DHT22;50437;51.970;5.904;2023-03-15T00:57:01;2.10;99.90
64143;DHT22;50437;51.970;5.904;2023-03-15T00:59:28;2.10;99.90
64143;DHT22;50437;51.970;5.904;2023-03-15T01:01:54;2.20;99.90
64143;DHT22;50437;51.970;5.904;2023-03-15T01:04:21;2.30;99.90
64143;DHT22;50437;51.970;5.904;2023-03-15T01:06:49;2.20;99.90
64143;DHT22;50437;51.970;5.904;2023-03-15T01:09:15;2.30;99.90
64143;DHT22;50437;51.970;5.904;2023-03-15T01:11:41;2.40;99.90
64143;DHT22;50437;51.970;5.904;2023-03-15T01:14:07;2.30;99.90
64143;DHT22;50437;51.970;5.904;2023-03-15T01:16:34;2.30;99.90
64143;DHT22;50437;51.970;5.904;2023-03-15T01:19:00;2.30;99.90
64143;DHT22;50437;51.970;5.904;2023-03-15T01:21:26;2.40;99.90
64143;DHT22;50437;51.970;5.904;2023-03-15T01:23:52;2.60;99.90
64143;DHT22;50437;51.970;5.904;2023-03-15T01:26:21;2.40;99.90
64143;DHT22;50437;51.970;5.904;2023-03-15T01:28:48;2.50;99.90
64143;DHT22;50437;51.970;5.904;2023-03-15T01:31:32;2.50;99.90
64143;DHT22;50437;51.970;5.904;2023-03-15T01:33:58;2.50;99.90
64143;DHT22;50437;51.970;5.904;2023-03-15T01:36:27;2.50;99.90
64143;DHT22;50437;51.970;5.904;2023-03-15T01:38:54;2.60;99.90
64143;DHT22;50437;51.970;5.904;2023-03-15T01:41:26;2.60;99.90
64143;DHT22;50437;51.970;5.904;2023-03-15T01:43:53;2.60;99.90
64143;DHT22;50437;51.970;5.904;2023-03-15T01:54:26;2.70;99.90
64143;DHT22;50437;51.970;5.904;2023-03-15T01:57:01;2.80;99.90
64143;DHT22;50437;51.970;5.904;2023-03-15T01:59:31;2.80;99.90
64143;DHT22;50437;51.970;5.904;2023-03-15T02:01:59;2.80;99.90
64143;DHT22;50437;51.970;5.904;2023-03-15T02:04:45;2.80;99.90
64143;DHT22;50437;51.970;5.904;2023-03-15T02:07:15;2.80;99.90
64143;DHT22;50437;51.970;5.904;2023-03-15T02:12:09;2.70;99.90
64143;DHT22;50437;51.970;5.904;2023-03-15T02:14:35;2.60;99.90
64143;DHT22;50437;51.970;5.904;2023-03-15T02:17:04;2.60;99.90
64143;DHT22;50437;51.970;5.904;2023-03-15T02:22:40;2.50;99.90
64143;DHT22;50437;51.970;5.904;2023-03-15T02:24:51;2.30;99.90
64143;DHT22;50437;51.970;5.904;2023-03-15T02:27:29;2.30;99.90
64143;DHT22;50437;51.970;5.904;2023-03-15T02:29:56;2.20;99.90
64143;DHT22;50437;51.970;5.904;2023-03-15T02:32:23;2.20;99.90
64143;DHT22;50437;51.970;5.904;2023-03-15T02:34:48;2.10;99.90
64143;DHT22;50437;51.970;5.904;2023-03-15T02:37:14;2.10;99.90
64143;DHT22;50437;51.970;5.904;2023-03-15T02:39:40;2.20;99.90
64143;DHT22;50437;51.970;5.904;2023-03-15T02:42:06;2.20;99.90
64143;DHT22;50437;51.970;5.904;2023-03-15T02:44:35;2.20;99.90
64143;DHT22;50437;51.970;5.904;2023-03-15T02:47:06;2.10;99.90
64143;DHT22;50437;51.970;5.904;2023-03-15T02:49:35;2.10;99.90
64143;DHT22;50437;51.970;5.904;2023-03-15T02:52:02;2.00;99.90
64143;DHT22;50437;51.970;5.904;2023-03-15T02:54:28;2.00;99.90
64143;DHT22;50437;51.970;5.904;2023-03-15T02:56:54;2.00;99.90
64143;DHT22;50437;51.970;5.904;2023-03-15T02:59:20;2.00;99.90
64143;DHT22;50437;51.970;5.904;2023-03-15T03:01:47;1.90;99.90
64143;DHT22;50437;51.970;5.904;2023-03-15T03:04:14;1.90;99.90
64143;DHT22;50437;51.970;5.904;2023-03-15T03:06:40;1.90;99.90
64143;DHT22;50437;51.970;5.904;2023-03-15T03:09:09;1.90;99.90
64143;DHT22;50437;51.970;5.904;2023-03-15T03:11:35;1.90;99.90
64143;DHT22;50437;51.970;5.904;2023-03-15T03:14:03;1.90;99.90
64143;DHT22;50437;51.970;5.904;2023-03-15T03:16:29;1.80;99.90
64143;DHT22;50437;51.970;5.904;2023-03-15T03:18:57;1.90;99.90
64143;DHT22;50437;51.970;5.904;2023-03-15T03:21:23;1.80;99.90
64143;DHT22;50437;51.970;5.904;2023-03-15T03:23:49;1.80;99.90
64143;DHT22;50437;51.970;5.904;2023-03-15T03:26:17;1.90;99.90
64143;DHT22;50437;51.970;5.904;2023-03-15T03:28:45;1.90;99.90
64143;DHT22;50437;51.970;5.904;2023-03-15T03:31:18;1.80;99.90
64143;DHT22;50437;51.970;5.904;2023-03-15T03:33:44;1.80;99.90
64143;DHT22;50437;51.970;5.904;2023-03-15T03:36:10;1.80;99.90
64143;DHT22;50437;51.970;5.904;2023-03-15T03:38:39;1.70;99.90
64143;DHT22;50437;51.970;5.904;2023-03-15T03:41:06;1.70;99.90
64143;DHT22;50437;51.970;5.904;2023-03-15T03:43:33;1.70;99.90
64143;DHT22;50437;51.970;5.904;2023-03-15T03:45:59;1.70;99.90
64143;DHT22;50437;51.970;5.904;2023-03-15T03:48:25;1.70;99.90
64143;DHT22;50437;51.970;5.904;2023-03-15T03:50:51;1.70;99.90
64143;DHT22;50437;51.970;5.904;2023-03-15T03:53:17;1.80;99.90
64143;DHT22;50437;51.970;5.904;2023-03-15T03:55:43;1.70;99.90
64143;DHT22;50437;51.970;5.904;2023-03-15T03:58:14;1.70;99.90
64143;DHT22;50437;51.970;5.904;2023-03-15T04:00:49;1.60;99.90
64143;DHT22;50437;51.970;5.904;2023-03-15T04:03:19;1.60;99.90
64143;DHT22;50437;51.970;5.904;2023-03-15T04:05:49;1.60;99.90
64143;DHT22;50437;51.970;5.904;2023-03-15T04:08:19;1.50;99.90
64143;DHT22;50437;51.970;5.904;2023-03-15T04:10:50;1.60;99.90
64143;DHT22;50437;51.970;5.904;2023-03-15T04:13:16;1.50;99.90
64143;DHT22;50437;51.970;5.904;2023-03-15T04:15:42;1.60;99.90
64143;DHT22;50437;51.970;5.904;2023-03-15T04:18:09;1.50;99.90
64143;DHT22;50437;51.970;5.904;2023-03-15T04:20:39;1.50;99.90
64143;DHT22;50437;51.970;5.904;2023-03-15T04:23:12;1.40;99.90
64143;DHT22;50437;51.970;5.904;2023-03-15T04:25:51;1.50;99.90
64143;DHT22;50437;51.970;5.904;2023-03-15T04:28:32;1.50;99.90
64143;DHT22;50437;51.970;5.904;2023-03-15T04:31:21;1.40;99.90
64143;DHT22;50437;51.970;5.904;2023-03-15T04:34:00;1.40;99.90
64143;DHT22;50437;51.970;5.904;2023-03-15T04:36:27;1.40;99.90
64143;DHT22;50437;51.970;5.904;2023-03-15T04:39:12;1.40;99.90
64143;DHT22;50437;51.970;5.904;2023-03-15T04:41:57;1.40;99.90
64143;DHT22;50437;51.970;5.904;2023-03-15T04:44:42;1.40;99.90
64143;DHT22;50437;51.970;5.904;2023-03-15T04:47:37;1.50;99.90
64143;DHT22;50437;51.970;5.904;2023-03-15T04:50:21;1.50;99.90
64143;DHT22;50437;51.970;5.904;2023-03-15T04:52:54;1.50;99.90
64143;DHT22;50437;51.970;5.904;2023-03-15T04:55:38;1.50;99.90
64143;DHT22;50437;51.970;5.904;2023-03-15T04:58:18;1.50;99.90
64143;DHT22;50437;51.970;5.904;2023-03-15T05:01:03;1.50;99.90
64143;DHT22;50437;51.970;5.904;2023-03-15T05:03:47;1.40;99.90
64143;DHT22;50437;51.970;5.904;2023-03-15T05:06:16;1.40;99.90
64143;DHT22;50437;51.970;5.904;2023-03-15T05:09:05;1.40;99.90
64143;DHT22;50437;51.970;5.904;2023-03-15T05:11:44;1.40;99.90
64143;DHT22;50437;51.970;5.904;2023-03-15T05:14:34;1.30;99.90
64143;DHT22;50437;51.970;5.904;2023-03-15T05:17:23;1.30;99.90
64143;DHT22;50437;51.970;5.904;2023-03-15T05:20:14;1.30;99.90
64143;DHT22;50437;51.970;5.904;2023-03-15T05:22:41;1.30;99.90
64143;DHT22;50437;51.970;5.904;2023-03-15T05:25:22;1.30;99.90
64143;DHT22;50437;51.970;5.904;2023-03-15T05:27:58;1.30;99.90
64143;DHT22;50437;51.970;5.904;2023-03-15T05:30:41;1.40;99.90
64143;DHT22;50437;51.970;5.904;2023-03-15T05:33:25;1.30;99.90
64143;DHT22;50437;51.970;5.904;2023-03-15T05:36:10;1.30;99.90
64143;DHT22;50437;51.970;5.904;2023-03-15T05:38:59;1.30;99.90
64143;DHT22;50437;51.970;5.904;2023-03-15T05:41:46;1.30;99.90
64143;DHT22;50437;51.970;5.904;2023-03-15T05:44:47;1.20;99.90
64143;DHT22;50437;51.970;5.904;2023-03-15T05:47:28;1.10;99.90
64143;DHT22;50437;51.970;5.904;2023-03-15T05:50:30;1.10;99.90
64143;DHT22;50437;51.970;5.904;2023-03-15T05:53:05;1.10;99.90
64143;DHT22;50437;51.970;5.904;2023-03-15T05:55:41;1.10;99.90
64143;DHT22;50437;51.970;5.904;2023-03-15T05:58:27;1.10;99.90
64143;DHT22;50437;51.970;5.904;2023-03-15T06:01:12;1.10;99.90
64143;DHT22;50437;51.970;5.904;2023-03-15T06:04:02;1.10;99.90
64143;DHT22;50437;51.970;5.904;2023-03-15T06:06:30;1.10;99.90
64143;DHT22;50437;51.970;5.904;2023-03-15T06:08:56;1.10;99.90
64143;DHT22;50437;51.970;5.904;2023-03-15T06:11:23;1.10;99.90
64143;DHT22;50437;51.970;5.904;2023-03-15T06:13:49;1.10;99.90
64143;DHT22;50437;51.970;5.904;2023-03-15T06:16:29;1.10;99.90
64143;DHT22;50437;51.970;5.904;2023-03-15T06:18:58;1.10;99.90
64143;DHT22;50437;51.970;5.904;2023-03-15T06:21:24;1.10;99.90
64143;DHT22;50437;51.970;5.904;2023-03-15T06:23:50;1.10;99.90
64143;DHT22;50437;51.970;5.904;2023-03-15T06:26:17;1.20;99.90
64143;DHT22;50437;51.970;5.904;2023-03-15T06:28:45;1.10;99.90
64143;DHT22;50437;51.970;5.904;2023-03-15T06:31:12;1.20;99.90
64143;DHT22;50437;51.970;5.904;2023-03-15T06:33:47;1.10;99.90
64143;DHT22;50437;51.970;5.904;2023-03-15T06:36:13;1.20;99.90
64143;DHT22;50437;51.970;5.904;2023-03-15T06:38:40;1.30;99.90
64143;DHT22;50437;51.970;5.904;2023-03-15T06:41:06;1.40;99.90
64143;DHT22;50437;51.970;5.904;2023-03-15T06:43:34;1.60;99.90
64143;DHT22;50437;51.970;5.904;2023-03-15T06:46:00;1.60;99.90
64143;DHT22;50437;51.970;5.904;2023-03-15T06:48:28;1.70;99.90
64143;DHT22;50437;51.970;5.904;2023-03-15T06:50:56;1.60;99.90
64143;DHT22;50437;51.970;5.904;2023-03-15T06:53:22;1.70;99.90
64143;DHT22;50437;51.970;5.904;2023-03-15T06:55:48;1.70;99.90
64143;DHT22;50437;51.970;5.904;2023-03-15T06:58:15;1.70;99.90
64143;DHT22;50437;51.970;5.904;2023-03-15T07:00:41;1.70;99.90
64143;DHT22;50437;51.970;5.904;2023-03-15T07:03:07;1.70;99.90
64143;DHT22;50437;51.970;5.904;2023-03-15T07:05:33;1.60;99.90
64143;DHT22;50437;51.970;5.904;2023-03-15T07:07:59;1.60;99.90
64143;DHT22;50437;51.970;5.904;2023-03-15T07:10:25;1.60;99.90
64143;DHT22;50437;51.970;5.904;2023-03-15T07:12:51;1.60;99.90
64143;DHT22;50437;51.970;5.904;2023-03-15T07:15:17;1.60;99.90
64143;DHT22;50437;51.970;5.904;2023-03-15T07:17:43;1.60;99.90
64143;DHT22;50437;51.970;5.904;2023-03-15T07:22:51;1.70;99.90
64143;DHT22;50437;51.970;5.904;2023-03-15T07:25:17;1.70;99.90
64143;DHT22;50437;51.970;5.904;2023-03-15T07:27:49;1.80;99.90
64143;DHT22;50437;51.970;5.904;2023-03-15T07:30:16;1.90;99.90
64143;DHT22;50437;51.970;5.904;2023-03-15T07:32:42;1.90;99.90
64143;DHT22;50437;51.970;5.904;2023-03-15T07:35:08;1.90;99.90
64143;DHT22;50437;51.970;5.904;2023-03-15T07:37:34;1.90;99.90
64143;DHT22;50437;51.970;5.904;2023-03-15T07:40:00;2.00;99.90
64143;DHT22;50437;51.970;5.904;2023-03-15T07:42:35;2.00;99.90
64143;DHT22;50437;51.970;5.904;2023-03-15T07:45:01;2.10;99.90
64143;DHT22;50437;51.970;5.904;2023-03-15T07:47:27;2.10;99.90
64143;DHT22;50437;51.970;5.904;2023-03-15T07:49:53;2.10;99.90
64143;DHT22;50437;51.970;5.904;2023-03-15T07:52:19;2.00;99.90
64143;DHT22;50437;51.970;5.904;2023-03-15T07:54:45;2.10;99.90
64143;DHT22;50437;51.970;5.904;2023-03-15T07:57:12;2.20;99.90
64143;DHT22;50437;51.970;5.904;2023-03-15T07:59:37;2.20;99.90
64143;DHT22;50437;51.970;5.904;2023-03-15T08:02:04;2.30;99.90
64143;DHT22;50437;51.970;5.904;2023-03-15T08:04:30;2.30;99.90
64143;DHT22;50437;51.970;5.904;2023-03-15T08:06:56;2.20;99.90
64143;DHT22;50437;51.970;5.904;2023-03-15T08:09:22;2.30;99.90
64143;DHT22;50437;51.970;5.904;2023-03-15T08:11:49;2.30;99.90
64143;DHT22;50437;51.970;5.904;2023-03-15T08:14:15;2.30;99.90
64143;DHT22;50437;51.970;5.904;2023-03-15T08:16:43;2.40;99.90
64143;DHT22;50437;51.970;5.904;2023-03-15T08:19:09;2.40;99.90
64143;DHT22;50437;51.970;5.904;2023-03-15T08:21:35;2.50;99.90
64143;DHT22;50437;51.970;5.904;2023-03-15T08:24:01;2.50;99.90
64143;DHT22;50437;51.970;5.904;2023-03-15T08:26:27;2.50;99.90
64143;DHT22;50437;51.970;5.904;2023-03-15T08:28:53;2.60;99.90
64143;DHT22;50437;51.970;5.904;2023-03-15T08:31:20;2.60;99.90
64143;DHT22;50437;51.970;5.904;2023-03-15T08:33:47;2.70;99.90
64143;DHT22;50437;51.970;5.904;2023-03-15T08:36:13;2.70;99.90
64143;DHT22;50437;51.970;5.904;2023-03-15T08:38:39;2.80;99.90
64143;DHT22;50437;51.970;5.904;2023-03-15T08:41:06;2.80;99.90
64143;DHT22;50437;51.970;5.904;2023-03-15T08:43:32;2.90;99.90
64143;DHT22;50437;51.970;5.904;2023-03-15T08:45:59;3.00;99.90
64143;DHT22;50437;51.970;5.904;2023-03-15T08:48:25;3.10;99.90
64143;DHT22;50437;51.970;5.904;2023-03-15T08:50:52;3.20;99.90
64143;DHT22;50437;51.970;5.904;2023-03-15T08:53:17;3.20;99.90
64143;DHT22;50437;51.970;5.904;2023-03-15T08:55:43;3.30;99.90
64143;DHT22;50437;51.970;5.904;2023-03-15T08:58:09;3.40;99.90
64143;DHT22;50437;51.970;5.904;2023-03-15T09:00:37;3.40;99.90
64143;DHT22;50437;51.970;5.904;2023-03-15T09:03:03;3.60;99.90
64143;DHT22;50437;51.970;5.904;2023-03-15T09:05:29;3.70;99.90
64143;DHT22;50437;51.970;5.904;2023-03-15T09:07:55;3.70;99.90
64143;DHT22;50437;51.970;5.904;2023-03-15T09:10:21;4.00;99.90
64143;DHT22;50437;51.970;5.904;2023-03-15T09:12:48;4.20;99.90
64143;DHT22;50437;51.970;5.904;2023-03-15T09:15:15;5.20;99.90
64143;DHT22;50437;51.970;5.904;2023-03-15T09:17:42;6.70;99.90
64143;DHT22;50437;51.970;5.904;2023-03-15T09:20:09;7.70;99.90
64143;DHT22;50437;51.970;5.904;2023-03-15T09:22:48;8.90;99.90
64143;DHT22;50437;51.970;5.904;2023-03-15T09:25:14;9.50;99.90
64143;DHT22;50437;51.970;5.904;2023-03-15T09:27:40;10.20;99.90
64143;DHT22;50437;51.970;5.904;2023-03-15T09:30:06;9.80;92.60
64143;DHT22;50437;51.970;5.904;2023-03-15T09:32:33;10.50;90.70
64143;DHT22;50437;51.970;5.904;2023-03-15T09:35:05;11.30;93.30
64143;DHT22;50437;51.970;5.904;2023-03-15T09:37:31;12.00;91.40
64143;DHT22;50437;51.970;5.904;2023-03-15T09:39:57;11.80;78.00
64143;DHT22;50437;51.970;5.904;2023-03-15T09:42:27;12.80;77.60
64143;DHT22;50437;51.970;5.904;2023-03-15T09:44:58;13.50;76.20
64143;DHT22;50437;51.970;5.904;2023-03-15T09:50:03;13.50;74.00
64143;DHT22;50437;51.970;5.904;2023-03-15T09:52:38;13.50;69.30
64143;DHT22;50437;51.970;5.904;2023-03-15T09:55:19;12.70;58.70
64143;DHT22;50437;51.970;5.904;2023-03-15T10:00:14;13.40;59.70
64143;DHT22;50437;51.970;5.904;2023-03-15T10:02:43;13.50;62.40
64143;DHT22;50437;51.970;5.904;2023-03-15T10:05:19;13.00;61.10
64143;DHT22;50437;51.970;5.904;2023-03-15T10:07:47;13.20;64.30
64143;DHT22;50437;51.970;5.904;2023-03-15T10:10:21;13.10;54.70
64143;DHT22;50437;51.970;5.904;2023-03-15T10:12:50;12.40;57.90
64143;DHT22;50437;51.970;5.904;2023-03-15T10:21:04;11.30;56.80
64143;DHT22;50437;51.970;5.904;2023-03-15T10:23:52;11.90;59.00
64143;DHT22;50437;51.970;5.904;2023-03-15T10:26:20;12.70;53.10
64143;DHT22;50437;51.970;5.904;2023-03-15T10:28:50;12.80;57.10
64143;DHT22;50437;51.970;5.904;2023-03-15T10:31:26;13.70;51.60
64143;DHT22;50437;51.970;5.904;2023-03-15T10:33:56;14.20;52.20
64143;DHT22;50437;51.970;5.904;2023-03-15T10:36:23;15.00;54.20
64143;DHT22;50437;51.970;5.904;2023-03-15T10:38:49;15.60;52.40
64143;DHT22;50437;51.970;5.904;2023-03-15T10:44:05;15.20;52.90
64143;DHT22;50437;51.970;5.904;2023-03-15T10:46:32;15.70;44.80
64143;DHT22;50437;51.970;5.904;2023-03-15T10:49:10;15.30;50.50
64143;DHT22;50437;51.970;5.904;2023-03-15T10:51:43;15.40;53.40
64143;DHT22;50437;51.970;5.904;2023-03-15T10:59:27;15.50;44.30
64143;DHT22;50437;51.970;5.904;2023-03-15T11:04:42;14.20;44.80
64143;DHT22;50437;51.970;5.904;2023-03-15T11:07:08;14.70;50.00
64143;DHT22;50437;51.970;5.904;2023-03-15T11:12:05;12.30;46.20
64143;DHT22;50437;51.970;5.904;2023-03-15T11:14:35;12.50;50.20
64143;DHT22;50437;51.970;5.904;2023-03-15T11:17:05;13.10;49.30
64143;DHT22;50437;51.970;5.904;2023-03-15T11:19:33;14.40;44.10
64143;DHT22;50437;51.970;5.904;2023-03-15T11:22:02;14.40;43.00
64143;DHT22;50437;51.970;5.904;2023-03-15T11:24:29;14.30;45.70
64143;DHT22;50437;51.970;5.904;2023-03-15T11:27:00;14.70;45.30
64143;DHT22;50437;51.970;5.904;2023-03-15T11:29:27;15.10;40.60
64143;DHT22;50437;51.970;5.904;2023-03-15T11:31:54;15.40;41.20
64143;DHT22;50437;51.970;5.904;2023-03-15T11:34:23;14.70;40.80
64143;DHT22;50437;51.970;5.904;2023-03-15T11:36:52;15.10;41.80
64143;DHT22;50437;51.970;5.904;2023-03-15T11:39:25;14.80;45.00
64143;DHT22;50437;51.970;5.904;2023-03-15T11:41:55;14.90;44.60
64143;DHT22;50437;51.970;5.904;2023-03-15T11:44:32;14.20;41.20
64143;DHT22;50437;51.970;5.904;2023-03-15T11:49:35;14.00;44.00
64143;DHT22;50437;51.970;5.904;2023-03-15T11:52:10;14.10;46.40
64143;DHT22;50437;51.970;5.904;2023-03-15T11:54:36;14.20;43.30
64143;DHT22;50437;51.970;5.904;2023-03-15T11:57:03;13.70;42.30
64143;DHT22;50437;51.970;5.904;2023-03-15T11:59:31;13.60;50.30
64143;DHT22;50437;51.970;5.904;2023-03-15T12:06:51;13.10;41.20
64143;DHT22;50437;51.970;5.904;2023-03-15T12:12:13;13.00;45.60
64143;DHT22;50437;51.970;5.904;2023-03-15T12:15:01;13.30;41.00
64143;DHT22;50437;51.970;5.904;2023-03-15T12:20:01;13.40;44.50
64143;DHT22;50437;51.970;5.904;2023-03-15T12:22:34;13.20;45.70
64143;DHT22;50437;51.970;5.904;2023-03-15T12:25:09;12.60;43.50
64143;DHT22;50437;51.970;5.904;2023-03-15T12:27:36;12.40;44.10
64143;DHT22;50437;51.970;5.904;2023-03-15T12:30:18;12.10;42.00
64143;DHT22;50437;51.970;5.904;2023-03-15T12:32:46;11.70;44.30
64143;DHT22;50437;51.970;5.904;2023-03-15T12:35:16;11.70;45.70
64143;DHT22;50437;51.970;5.904;2023-03-15T12:37:45;11.70;45.60
64143;DHT22;50437;51.970;5.904;2023-03-15T12:48:17;11.00;45.80
64143;DHT22;50437;51.970;5.904;2023-03-15T12:53:08;11.50;47.60
64143;DHT22;50437;51.970;5.904;2023-03-15T12:55:37;11.80;46.20
64143;DHT22;50437;51.970;5.904;2023-03-15T12:58:05;11.80;47.00
64143;DHT22;50437;51.970;5.904;2023-03-15T13:00:34;11.10;46.50
64143;DHT22;50437;51.970;5.904;2023-03-15T13:03:12;10.80;48.20
64143;DHT22;50437;51.970;5.904;2023-03-15T13:06:29;10.60;48.70
64143;DHT22;50437;51.970;5.904;2023-03-15T13:19:05;11.00;48.10
64143;DHT22;50437;51.970;5.904;2023-03-15T13:24:38;10.90;48.40
64143;DHT22;50437;51.970;5.904;2023-03-15T13:29:36;10.70;47.60
64143;DHT22;50437;51.970;5.904;2023-03-15T13:32:11;10.90;45.60
64143;DHT22;50437;51.970;5.904;2023-03-15T13:34:38;10.70;45.00
64143;DHT22;50437;51.970;5.904;2023-03-15T13:37:10;10.70;46.10
64143;DHT22;50437;51.970;5.904;2023-03-15T13:39:36;10.70;44.60
64143;DHT22;50437;51.970;5.904;2023-03-15T13:44:28;10.90;44.00
64143;DHT22;50437;51.970;5.904;2023-03-15T13:46:55;10.70;44.50
64143;DHT22;50437;51.970;5.904;2023-03-15T13:49:22;10.90;44.10
64143;DHT22;50437;51.970;5.904;2023-03-15T13:51:49;10.90;44.40
64143;DHT22;50437;51.970;5.904;2023-03-15T13:57:04;10.60;40.30
64143;DHT22;50437;51.970;5.904;2023-03-15T13:59:30;10.40;40.90
64143;DHT22;50437;51.970;5.904;2023-03-15T14:02:00;10.30;44.60
64143;DHT22;50437;51.970;5.904;2023-03-15T14:04:27;10.60;46.00
64143;DHT22;50437;51.970;5.904;2023-03-15T14:09:38;10.20;46.10
64143;DHT22;50437;51.970;5.904;2023-03-15T14:12:15;10.20;42.60
64143;DHT22;50437;51.970;5.904;2023-03-15T14:14:48;10.10;44.60
64143;DHT22;50437;51.970;5.904;2023-03-15T14:17:28;10.30;45.70
64143;DHT22;50437;51.970;5.904;2023-03-15T14:19:55;10.40;46.60
64143;DHT22;50437;51.970;5.904;2023-03-15T14:22:21;10.50;47.40
64143;DHT22;50437;51.970;5.904;2023-03-15T14:24:50;10.60;45.30
64143;DHT22;50437;51.970;5.904;2023-03-15T14:27:20;10.70;47.80
64143;DHT22;50437;51.970;5.904;2023-03-15T14:29:48;10.70;48.90
64143;DHT22;50437;51.970;5.904;2023-03-15T14:32:26;10.50;46.70
64143;DHT22;50437;51.970;5.904;2023-03-15T14:35:00;10.50;45.00
64143;DHT22;50437;51.970;5.904;2023-03-15T14:40:16;10.60;44.80
64143;DHT22;50437;51.970;5.904;2023-03-15T14:42:42;10.50;44.30
64143;DHT22;50437;51.970;5.904;2023-03-15T14:45:09;10.50;43.40
64143;DHT22;50437;51.970;5.904;2023-03-15T14:47:36;10.50;45.50
64143;DHT22;50437;51.970;5.904;2023-03-15T14:50:14;10.50;46.60
64143;DHT22;50437;51.970;5.904;2023-03-15T14:52:44;10.40;44.80
64143;DHT22;50437;51.970;5.904;2023-03-15T14:55:26;10.40;46.90
64143;DHT22;50437;51.970;5.904;2023-03-15T14:57:53;10.20;45.70
64143;DHT22;50437;51.970;5.904;2023-03-15T15:00:20;10.10;46.30
64143;DHT22;50437;51.970;5.904;2023-03-15T15:02:47;9.90;45.90
64143;DHT22;50437;51.970;5.904;2023-03-15T15:07:47;9.80;47.10
64143;DHT22;50437;51.970;5.904;2023-03-15T15:10:16;9.70;45.00
64143;DHT22;50437;51.970;5.904;2023-03-15T15:12:47;9.90;48.40
64143;DHT22;50437;51.970;5.904;2023-03-15T15:15:15;10.10;47.50
64143;DHT22;50437;51.970;5.904;2023-03-15T15:17:41;10.10;45.80
64143;DHT22;50437;51.970;5.904;2023-03-15T15:20:08;10.00;44.80
64143;DHT22;50437;51.970;5.904;2023-03-15T15:22:37;9.90;47.70
64143;DHT22;50437;51.970;5.904;2023-03-15T15:25:20;9.80;45.60
64143;DHT22;50437;51.970;5.904;2023-03-15T15:27:47;9.70;46.10
64143;DHT22;50437;51.970;5.904;2023-03-15T15:30:20;9.50;45.40
64143;DHT22;50437;51.970;5.904;2023-03-15T15:32:50;9.50;44.10
64143;DHT22;50437;51.970;5.904;2023-03-15T15:35:17;9.60;46.40
64143;DHT22;50437;51.970;5.904;2023-03-15T15:37:44;9.60;47.90
64143;DHT22;50437;51.970;5.904;2023-03-15T15:40:14;9.70;47.60
64143;DHT22;50437;51.970;5.904;2023-03-15T15:42:40;9.50;44.80
64143;DHT22;50437;51.970;5.904;2023-03-15T15:45:07;9.50;47.20
64143;DHT22;50437;51.970;5.904;2023-03-15T15:47:38;9.60;48.20
64143;DHT22;50437;51.970;5.904;2023-03-15T15:50:04;9.40;46.20
64143;DHT22;50437;51.970;5.904;2023-03-15T15:52:31;9.50;46.90
64143;DHT22;50437;51.970;5.904;2023-03-15T15:54:57;9.50;46.40
64143;DHT22;50437;51.970;5.904;2023-03-15T15:57:29;9.50;45.90
64143;DHT22;50437;51.970;5.904;2023-03-15T15:59:55;9.50;46.00
64143;DHT22;50437;51.970;5.904;2023-03-15T16:02:21;9.40;47.30
64143;DHT22;50437;51.970;5.904;2023-03-15T16:04:48;9.40;46.00
64143;DHT22;50437;51.970;5.904;2023-03-15T16:07:17;9.30;48.50
64143;DHT22;50437;51.970;5.904;2023-03-15T16:09:45;9.40;46.90
64143;DHT22;50437;51.970;5.904;2023-03-15T16:12:12;9.40;46.70
64143;DHT22;50437;51.970;5.904;2023-03-15T16:14:42;9.30;45.00
64143;DHT22;50437;51.970;5.904;2023-03-15T16:17:26;9.20;47.60
64143;DHT22;50437;51.970;5.904;2023-03-15T16:19:54;9.20;48.10
64143;DHT22;50437;51.970;5.904;2023-03-15T16:22:21;9.20;48.20
64143;DHT22;50437;51.970;5.904;2023-03-15T16:24:53;9.20;49.60
64143;DHT22;50437;51.970;5.904;2023-03-15T16:27:22;9.00;48.30
64143;DHT22;50437;51.970;5.904;2023-03-15T16:29:49;9.00;49.70
64143;DHT22;50437;51.970;5.904;2023-03-15T16:32:22;9.00;49.10
64143;DHT22;50437;51.970;5.904;2023-03-15T16:34:49;9.00;49.50
64143;DHT22;50437;51.970;5.904;2023-03-15T16:37:23;8.90;46.60
64143;DHT22;50437;51.970;5.904;2023-03-15T16:39:51;8.90;49.10
64143;DHT22;50437;51.970;5.904;2023-03-15T16:42:18;8.80;49.40
64143;DHT22;50437;51.970;5.904;2023-03-15T16:44:45;8.70;49.30
64143;DHT22;50437;51.970;5.904;2023-03-15T16:47:11;8.70;49.40
64143;DHT22;50437;51.970;5.904;2023-03-15T16:49:37;8.70;50.10
64143;DHT22;50437;51.970;5.904;2023-03-15T16:52:04;8.60;49.30
64143;DHT22;50437;51.970;5.904;2023-03-15T16:54:31;8.60;49.60
64143;DHT22;50437;51.970;5.904;2023-03-15T16:56:57;8.60;48.50
64143;DHT22;50437;51.970;5.904;2023-03-15T16:59:26;8.50;47.60
64143;DHT22;50437;51.970;5.904;2023-03-15T17:01:52;8.40;50.40
64143;DHT22;50437;51.970;5.904;2023-03-15T17:04:19;8.40;50.60
64143;DHT22;50437;51.970;5.904;2023-03-15T17:06:46;8.30;48.80
64143;DHT22;50437;51.970;5.904;2023-03-15T17:11:40;8.10;48.80
64143;DHT22;50437;51.970;5.904;2023-03-15T17:14:06;8.20;47.60
64143;DHT22;50437;51.970;5.904;2023-03-15T17:16:36;8.00;50.10
64143;DHT22;50437;51.970;5.904;2023-03-15T17:19:02;7.90;48.20
64143;DHT22;50437;51.970;5.904;2023-03-15T17:21:29;7.80;49.20
64143;DHT22;50437;51.970;5.904;2023-03-15T17:23:56;7.80;49.80
64143;DHT22;50437;51.970;5.904;2023-03-15T17:26:23;7.60;50.20
64143;DHT22;50437;51.970;5.904;2023-03-15T17:28:49;7.60;49.80
64143;DHT22;50437;51.970;5.904;2023-03-15T17:31:20;7.60;50.60
64143;DHT22;50437;51.970;5.904;2023-03-15T17:33:49;7.50;52.80